Time;durP1;ratioP1;P1;durP2;ratioP2;P2;SDS_P1;SDS_P2;PMS_P1;PMS_P2;Temp;Humidity;BMP_temperature;BMP_pressure;BME280_temperature;BME280_humidity;BME280_pressure;Samples;Min_cycle;Max_cycle;Signal;HPM_P1;HPM_P2
2024/02/06 00:00:17;;;;;;;;;;;5.40;99.90;;;-146.41;100.00;57768.22;4978126;28;2565;-67
2024/02/06 00:02:44;;;;;;;;;;;5.40;99.90;;;-146.41;100.00;57768.22;4979584;28;2019;-67
2024/02/06 00:05:11;;;;;;;;;;;5.40;99.90;;;-146.41;100.00;57768.22;4983375;28;1746;-67
2024/02/06 00:07:38;;;;;;;;;;;5.40;99.90;;;-146.41;100.00;57768.22;4978839;28;1903;-68
2024/02/06 00:10:05;;;;;;;;;;;5.50;99.90;;;-146.41;100.00;57768.22;4983727;28;1463;-68
2024/02/06 00:12:33;;;;;;;;;;;5.40;99.90;;;-146.41;100.00;57768.22;4979168;28;1464;-67
2024/02/06 00:15:00;;;;;;;;;;;5.30;99.90;;;-146.41;100.00;57768.22;4979033;28;3273;-67
2024/02/06 00:17:26;;;;;;;;;;;5.40;99.90;;;-146.41;100.00;57768.22;4979495;28;1516;-66
2024/02/06 00:19:53;;;;;;;;;;;5.40;99.90;;;-146.41;100.00;57768.22;5011009;28;1413;-67
2024/02/06 00:22:20;;;;;;;;;;;5.30;99.90;;;-146.41;100.00;57768.22;5007613;28;1737;-67
2024/02/06 00:24:49;;;;;;;;;;;5.30;99.90;;;-146.41;100.00;57768.22;4978696;28;1464;-67
2024/02/06 00:27:16;;;;;;;;;;;5.30;99.90;;;-146.41;100.00;57768.22;4980905;28;1985;-68
2024/02/06 00:29:43;;;;;;;;;;;5.20;99.90;;;-146.41;100.00;57768.22;4975621;28;2252;-66
2024/02/06 00:32:11;;;;;;;;;;;5.30;99.90;;;-146.41;100.00;57768.22;4981296;28;1409;-67
2024/02/06 00:34:38;;;;;;;;;;;5.30;99.90;;;-146.41;100.00;57768.22;4981664;28;1367;-67
2024/02/06 00:37:05;;;;;;;;;;;5.30;99.90;;;-146.41;100.00;57768.22;4996460;28;1385;-68
2024/02/06 00:39:32;;;;;;;;;;;5.30;99.90;;;-146.41;100.00;57768.22;4981382;28;1552;-67
2024/02/06 00:41:58;;;;;;;;;;;5.30;99.90;;;-146.41;100.00;57768.22;4979968;28;2070;-67
2024/02/06 00:44:25;;;;;;;;;;;5.30;99.90;;;-146.41;100.00;57768.22;4978505;28;1868;-68
2024/02/06 00:46:52;;;;;;;;;;;5.20;99.90;;;-146.41;100.00;57768.22;4980345;28;2707;-67
2024/02/06 00:49:18;;;;;;;;;;;5.20;99.90;;;-146.41;100.00;57768.22;4977749;28;2016;-68
2024/02/06 00:52:03;;;;;;;;;;;5.20;99.90;;;-146.41;100.00;57768.22;4977687;28;1568;-68
2024/02/06 00:54:30;;;;;;;;;;;5.20;99.90;;;-146.41;100.00;57768.22;5012015;28;1742;-68
2024/02/06 00:56:57;;;;;;;;;;;5.20;99.90;;;-146.41;100.00;57768.22;4978506;28;1708;-67
2024/02/06 00:59:24;;;;;;;;;;;5.20;99.90;;;-146.41;100.00;57768.22;4981265;28;1405;-67
2024/02/06 01:01:51;;;;;;;;;;;5.20;99.90;;;-146.41;100.00;57768.22;4979055;28;3703;-67
2024/02/06 01:04:18;;;;;;;;;;;5.20;99.90;;;-146.41;100.00;57768.22;4981991;28;1494;-67
2024/02/06 01:06:46;;;;;;;;;;;5.10;99.90;;;-146.41;100.00;57768.22;4979805;28;2611;-67
2024/02/06 01:09:13;;;;;;;;;;;5.20;99.90;;;-146.41;100.00;57768.22;4979858;28;2817;-67
2024/02/06 01:11:40;;;;;;;;;;;5.20;99.90;;;-146.41;100.00;57768.22;4983503;28;1462;-67
2024/02/06 01:14:07;;;;;;;;;;;5.20;99.90;;;-146.41;100.00;57768.22;4978536;28;1506;-66
2024/02/06 01:16:35;;;;;;;;;;;5.20;99.90;;;-146.41;100.00;57768.22;4981877;28;1607;-68
2024/02/06 01:19:02;;;;;;;;;;;5.30;99.90;;;-146.41;100.00;57768.22;4981646;28;1518;-67
2024/02/06 01:21:29;;;;;;;;;;;5.30;99.90;;;-146.41;100.00;57768.22;4984272;28;1975;-67
2024/02/06 01:23:55;;;;;;;;;;;5.20;99.90;;;-146.41;100.00;57768.22;4980590;28;1453;-68
2024/02/06 01:26:22;;;;;;;;;;;5.20;99.90;;;-146.41;100.00;57768.22;4984276;28;1741;-67
2024/02/06 01:28:49;;;;;;;;;;;5.20;99.90;;;-146.41;100.00;57768.22;4982790;28;2000;-68
2024/02/06 01:31:16;;;;;;;;;;;5.20;99.90;;;-146.41;100.00;57768.22;4983730;28;1857;-68
2024/02/06 01:33:43;;;;;;;;;;;5.20;99.90;;;-146.41;100.00;57768.22;4981976;28;1975;-67
2024/02/06 01:36:10;;;;;;;;;;;5.30;99.90;;;-146.41;100.00;57768.22;4981023;28;1485;-68
2024/02/06 01:38:37;;;;;;;;;;;5.30;99.90;;;-146.41;100.00;57768.22;4983523;28;1433;-68
2024/02/06 01:41:03;;;;;;;;;;;5.40;99.90;;;-146.41;100.00;57768.22;4984072;28;1416;-67
2024/02/06 01:43:30;;;;;;;;;;;5.40;99.90;;;-146.41;100.00;57768.22;4981376;28;1480;-67
2024/02/06 01:45:58;;;;;;;;;;;5.40;99.90;;;-146.41;100.00;57768.22;4985018;28;1735;-67
2024/02/06 01:48:25;;;;;;;;;;;5.30;99.90;;;-146.41;100.00;57768.22;4983513;28;3223;-67
2024/02/06 01:50:52;;;;;;;;;;;5.30;99.90;;;-146.41;100.00;57768.22;4999106;28;1927;-67
2024/02/06 01:53:21;;;;;;;;;;;5.30;99.90;;;-146.41;100.00;57768.22;5000414;28;1615;-67
2024/02/06 01:55:48;;;;;;;;;;;5.40;99.90;;;-146.41;100.00;57768.22;4982577;28;1467;-67
2024/02/06 01:58:15;;;;;;;;;;;5.40;99.90;;;-146.41;100.00;57768.22;4985895;28;1848;-67
2024/02/06 02:00:43;;;;;;;;;;;5.30;99.90;;;-146.41;100.00;57768.22;4998134;28;2045;-67
2024/02/06 02:03:10;;;;;;;;;;;5.30;99.90;;;-146.41;100.00;57768.22;4982879;28;2623;-68
2024/02/06 02:05:38;;;;;;;;;;;5.40;99.90;;;-146.41;100.00;57768.22;4982036;28;1434;-67
2024/02/06 02:08:05;;;;;;;;;;;5.30;99.90;;;-146.41;100.00;57768.22;4984639;28;2001;-67
2024/02/06 02:10:32;;;;;;;;;;;5.30;99.90;;;-146.41;100.00;57768.22;4981932;28;1604;-67
2024/02/06 02:13:00;;;;;;;;;;;5.30;99.90;;;-146.41;100.00;57768.22;4982599;28;1432;-67
2024/02/06 02:15:26;;;;;;;;;;;5.20;99.90;;;-146.41;100.00;57768.22;4982978;28;1433;-67
2024/02/06 02:17:53;;;;;;;;;;;5.10;99.90;;;-146.41;100.00;57768.22;4980889;28;1951;-67
2024/02/06 02:20:20;;;;;;;;;;;5.00;99.90;;;-146.41;100.00;57768.22;4983036;28;1702;-67
2024/02/06 02:22:47;;;;;;;;;;;5.10;99.90;;;-146.41;100.00;57768.22;4998829;28;1435;-68
2024/02/06 02:25:14;;;;;;;;;;;5.00;99.90;;;-146.41;100.00;57768.22;4986812;28;1399;-66
2024/02/06 02:27:41;;;;;;;;;;;5.00;99.90;;;-146.41;100.00;57768.22;4997719;28;1489;-67
2024/02/06 02:30:08;;;;;;;;;;;5.00;99.90;;;-146.41;100.00;57768.22;4977266;28;3222;-67
2024/02/06 02:32:36;;;;;;;;;;;5.00;99.90;;;-146.41;100.00;57768.22;4982219;28;1354;-68
2024/02/06 02:35:03;;;;;;;;;;;5.00;99.90;;;-146.41;100.00;57768.22;4983873;28;1310;-67
2024/02/06 02:37:30;;;;;;;;;;;4.90;99.90;;;-146.41;100.00;57768.22;5011178;28;1330;-66
2024/02/06 02:39:57;;;;;;;;;;;5.00;99.90;;;-146.41;100.00;57768.22;4983959;28;1343;-67
2024/02/06 02:42:24;;;;;;;;;;;5.00;99.90;;;-146.41;100.00;57768.22;4984315;28;1418;-67
2024/02/06 02:44:50;;;;;;;;;;;5.00;99.90;;;-146.41;100.00;57768.22;4982341;28;2105;-67
2024/02/06 02:47:17;;;;;;;;;;;5.00;99.90;;;-146.41;100.00;57768.22;4998426;28;1294;-68
2024/02/06 02:49:44;;;;;;;;;;;5.00;99.90;;;-146.41;100.00;57768.22;4981074;28;1926;-67
2024/02/06 02:52:11;;;;;;;;;;;5.00;99.90;;;-146.41;100.00;57768.22;4982972;28;1639;-67
2024/02/06 02:54:38;;;;;;;;;;;4.90;99.90;;;-146.41;100.00;57768.22;4983097;28;1408;-67
2024/02/06 02:57:05;;;;;;;;;;;5.00;99.90;;;-146.41;100.00;57768.22;4969965;28;1336;-67
2024/02/06 02:59:32;;;;;;;;;;;5.10;99.90;;;-146.41;100.00;57768.22;4982236;28;2230;-67
2024/02/06 03:01:59;;;;;;;;;;;5.00;99.90;;;-146.41;100.00;57768.22;4981918;28;1320;-67
2024/02/06 03:04:26;;;;;;;;;;;5.00;99.90;;;-146.41;100.00;57768.22;4983007;28;1440;-67
2024/02/06 03:06:53;;;;;;;;;;;5.10;99.90;;;-146.41;100.00;57768.22;4979682;28;2648;-67
2024/02/06 03:09:20;;;;;;;;;;;5.00;99.90;;;-146.41;100.00;57768.22;4984481;28;1930;-68
2024/02/06 03:11:47;;;;;;;;;;;5.10;99.90;;;-146.41;100.00;57768.22;4983318;28;1408;-68
2024/02/06 03:14:14;;;;;;;;;;;5.00;99.90;;;-146.41;100.00;57768.22;4981696;28;1309;-67
2024/02/06 03:16:41;;;;;;;;;;;5.00;99.90;;;-146.41;100.00;57768.22;4983658;28;1255;-67
2024/02/06 03:19:08;;;;;;;;;;;5.00;99.90;;;-146.41;100.00;57768.22;4982729;28;3183;-67
2024/02/06 03:21:35;;;;;;;;;;;5.00;99.90;;;-146.41;100.00;57768.22;4982144;28;1302;-66
2024/02/06 03:24:02;;;;;;;;;;;5.00;99.90;;;-146.41;100.00;57768.22;4980456;28;1479;-67
2024/02/06 03:26:29;;;;;;;;;;;4.90;99.90;;;-146.41;100.00;57768.22;4983042;28;1293;-66
2024/02/06 03:28:56;;;;;;;;;;;4.90;99.90;;;-146.41;100.00;57768.22;4983912;28;2045;-68
2024/02/06 03:31:23;;;;;;;;;;;4.90;99.90;;;-146.41;100.00;57768.22;4982127;28;1521;-67
2024/02/06 03:33:50;;;;;;;;;;;4.90;99.90;;;-146.41;100.00;57768.22;4981632;28;1931;-68
2024/02/06 03:36:17;;;;;;;;;;;4.90;99.90;;;-146.41;100.00;57768.22;4982179;28;1346;-67
2024/02/06 03:38:44;;;;;;;;;;;4.90;99.90;;;-146.41;100.00;57768.22;4980355;28;1314;-68
2024/02/06 03:41:12;;;;;;;;;;;4.90;99.90;;;-146.41;100.00;57768.22;4982763;28;1449;-67
2024/02/06 03:43:39;;;;;;;;;;;4.90;99.90;;;-146.41;100.00;57768.22;4981258;28;1517;-66
2024/02/06 03:46:09;;;;;;;;;;;4.90;99.90;;;-146.41;100.00;57768.22;4980546;28;1358;-68
2024/02/06 03:48:36;;;;;;;;;;;4.90;99.90;;;-146.41;100.00;57768.22;4979115;28;2144;-68
2024/02/06 03:51:04;;;;;;;;;;;4.90;99.90;;;-146.41;100.00;57768.22;4984332;28;1411;-67
2024/02/06 03:53:32;;;;;;;;;;;4.90;99.90;;;-146.41;100.00;57768.22;4982855;28;1405;-67
2024/02/06 03:55:59;;;;;;;;;;;5.00;99.90;;;-146.41;100.00;57768.22;4978741;28;1301;-67
2024/02/06 03:58:26;;;;;;;;;;;4.90;99.90;;;-146.41;100.00;57768.22;4996383;28;1327;-68
2024/02/06 04:00:52;;;;;;;;;;;4.90;99.90;;;-146.41;100.00;57768.22;4983731;28;3122;-66
2024/02/06 04:03:20;;;;;;;;;;;4.90;99.90;;;-146.41;100.00;57768.22;4994507;28;2799;-67
2024/02/06 04:05:47;;;;;;;;;;;4.80;99.90;;;-146.41;100.00;57768.22;4982194;28;1359;-67
2024/02/06 04:08:13;;;;;;;;;;;4.80;99.90;;;-146.41;100.00;57768.22;4979186;28;1252;-67
2024/02/06 04:10:40;;;;;;;;;;;4.90;99.90;;;-146.41;100.00;57768.22;4980446;28;1364;-68
2024/02/06 04:13:08;;;;;;;;;;;4.80;99.90;;;-146.41;100.00;57768.22;4981744;28;1671;-67
2024/02/06 04:15:35;;;;;;;;;;;4.80;99.90;;;-146.41;100.00;57768.22;4980753;28;1320;-68
2024/02/06 04:18:05;;;;;;;;;;;4.80;99.90;;;-146.41;100.00;57768.22;4982311;28;2017;-67
2024/02/06 04:20:33;;;;;;;;;;;4.80;99.90;;;-146.41;100.00;57768.22;4982811;28;1263;-67
2024/02/06 04:23:03;;;;;;;;;;;4.80;99.90;;;-146.41;100.00;57768.22;5010263;28;1460;-67
2024/02/06 04:25:30;;;;;;;;;;;4.80;99.90;;;-146.41;100.00;57768.22;4981607;28;1376;-67
2024/02/06 04:27:56;;;;;;;;;;;4.90;99.90;;;-146.41;100.00;57768.22;4997476;28;1386;-67
2024/02/06 04:30:23;;;;;;;;;;;4.90;99.90;;;-146.41;100.00;57768.22;4995754;28;2013;-67
2024/02/06 04:32:53;;;;;;;;;;;4.80;99.90;;;-146.41;100.00;57768.22;4977818;28;1887;-67
2024/02/06 04:35:20;;;;;;;;;;;4.80;99.90;;;-146.41;100.00;57768.22;4993337;28;1319;-67
2024/02/06 04:37:47;;;;;;;;;;;4.90;99.90;;;-146.41;100.00;57768.22;4981452;28;1398;-67
2024/02/06 04:40:14;;;;;;;;;;;4.90;99.90;;;-146.41;100.00;57768.22;4981462;28;1572;-67
2024/02/06 04:42:41;;;;;;;;;;;4.90;99.90;;;-146.41;100.00;57768.22;4979896;28;1271;-67
2024/02/06 04:45:08;;;;;;;;;;;4.80;99.90;;;-146.41;100.00;57768.22;4979529;28;3146;-67
2024/02/06 04:47:35;;;;;;;;;;;4.90;99.90;;;-146.41;100.00;57768.22;4979851;28;1342;-68
2024/02/06 04:50:03;;;;;;;;;;;4.80;99.90;;;-146.41;100.00;57768.22;4981880;28;1914;-67
2024/02/06 04:52:30;;;;;;;;;;;4.90;99.90;;;-146.41;100.00;57768.22;4977921;28;1539;-67
2024/02/06 04:54:59;;;;;;;;;;;4.80;99.90;;;-146.41;100.00;57768.22;4981901;28;1367;-67
2024/02/06 04:57:26;;;;;;;;;;;4.80;99.90;;;-146.41;100.00;57768.22;4984475;28;1298;-67
2024/02/06 04:59:53;;;;;;;;;;;4.80;99.90;;;-146.41;100.00;57768.22;4985626;28;2089;-67
2024/02/06 05:02:19;;;;;;;;;;;4.80;99.90;;;-146.41;100.00;57768.22;4978979;28;1283;-68
2024/02/06 05:04:51;;;;;;;;;;;4.80;99.90;;;-146.41;100.00;57768.22;4981854;28;2651;-67
2024/02/06 05:07:18;;;;;;;;;;;4.90;99.90;;;-146.41;100.00;57768.22;4982972;28;1382;-67
2024/02/06 05:09:46;;;;;;;;;;;4.80;99.90;;;-146.41;100.00;57768.22;4986285;28;2009;-67
2024/02/06 05:12:13;;;;;;;;;;;4.90;99.90;;;-146.41;100.00;57768.22;4984965;28;1387;-67
2024/02/06 05:14:40;;;;;;;;;;;4.90;99.90;;;-146.41;100.00;57768.22;4982197;28;1318;-67
2024/02/06 05:17:07;;;;;;;;;;;4.90;99.90;;;-146.41;100.00;57768.22;4983836;28;1271;-67
2024/02/06 05:19:34;;;;;;;;;;;4.90;99.90;;;-146.41;100.00;57768.22;4983947;28;1979;-67
2024/02/06 05:22:01;;;;;;;;;;;4.80;99.90;;;-146.41;100.00;57768.22;4983176;28;1357;-68
2024/02/06 05:24:28;;;;;;;;;;;4.90;99.90;;;-146.41;100.00;57768.22;5011410;28;1398;-67
2024/02/06 05:26:55;;;;;;;;;;;4.80;99.90;;;-146.41;100.00;57768.22;4982952;28;1335;-67
2024/02/06 05:29:22;;;;;;;;;;;4.90;99.90;;;-146.41;100.00;57768.22;4982910;28;1914;-67
2024/02/06 05:31:49;;;;;;;;;;;4.90;99.90;;;-146.41;100.00;57768.22;4989813;28;1302;-67
2024/02/06 05:34:16;;;;;;;;;;;4.90;99.90;;;-146.41;100.00;57768.22;4984970;28;3150;-67
2024/02/06 05:36:43;;;;;;;;;;;4.90;99.90;;;-146.41;100.00;57768.22;4983498;28;1565;-68
2024/02/06 05:39:09;;;;;;;;;;;4.90;99.90;;;-146.41;100.00;57768.22;5000297;28;1410;-67
2024/02/06 05:41:36;;;;;;;;;;;4.90;99.90;;;-146.41;100.00;57768.22;4984252;28;1311;-67
2024/02/06 05:44:03;;;;;;;;;;;4.90;99.90;;;-146.41;100.00;57768.22;4985529;28;1363;-68
2024/02/06 05:46:30;;;;;;;;;;;4.90;99.90;;;-146.41;100.00;57768.22;4986186;28;2163;-67
2024/02/06 05:48:57;;;;;;;;;;;4.90;99.90;;;-146.41;100.00;57768.22;4986531;28;1914;-67
2024/02/06 05:51:24;;;;;;;;;;;5.00;99.90;;;-146.41;100.00;57768.22;4986008;28;1432;-67
2024/02/06 05:53:51;;;;;;;;;;;4.90;99.90;;;-146.41;100.00;57768.22;4985384;28;1319;-67
2024/02/06 05:56:17;;;;;;;;;;;4.90;99.90;;;-146.41;100.00;57768.22;4985167;28;1413;-67
2024/02/06 05:58:44;;;;;;;;;;;4.90;99.90;;;-146.41;100.00;57768.22;4986373;28;1359;-68
2024/02/06 06:01:11;;;;;;;;;;;4.90;99.90;;;-146.41;100.00;57768.22;4983647;28;2557;-67
2024/02/06 06:03:39;;;;;;;;;;;5.00;99.90;;;-146.41;100.00;57768.22;4981747;28;1537;-67
2024/02/06 06:06:06;;;;;;;;;;;5.00;99.90;;;-146.41;100.00;57768.22;4977242;28;1382;-68
2024/02/06 06:08:33;;;;;;;;;;;5.00;99.90;;;-146.41;100.00;57768.22;4985205;28;1498;-67
2024/02/06 06:11:00;;;;;;;;;;;5.00;99.90;;;-146.41;100.00;57768.22;4987544;28;1902;-67
2024/02/06 06:13:27;;;;;;;;;;;5.00;99.90;;;-146.41;100.00;57768.22;4981078;28;1680;-67
2024/02/06 06:15:54;;;;;;;;;;;5.00;99.90;;;-146.41;100.00;57768.22;4983556;28;3234;-68
2024/02/06 06:18:21;;;;;;;;;;;5.10;99.90;;;-146.41;100.00;57768.22;4981742;28;2021;-68
2024/02/06 06:20:48;;;;;;;;;;;5.10;99.90;;;-146.41;100.00;57768.22;4985675;28;1400;-67
2024/02/06 06:23:15;;;;;;;;;;;4.90;99.90;;;-146.41;100.00;57768.22;4983736;28;1266;-67
2024/02/06 06:25:41;;;;;;;;;;;5.00;99.90;;;-146.41;100.00;57768.22;4986137;28;1635;-67
2024/02/06 06:28:08;;;;;;;;;;;4.90;99.90;;;-146.41;100.00;57768.22;4979741;28;1211;-67
2024/02/06 06:30:35;;;;;;;;;;;4.90;99.90;;;-146.41;100.00;57768.22;4979224;28;2006;-67
2024/02/06 06:33:03;;;;;;;;;;;4.90;99.90;;;-146.41;100.00;57768.22;4982006;28;1155;-67
2024/02/06 06:35:30;;;;;;;;;;;5.00;99.90;;;-146.41;100.00;57768.22;4983963;28;1353;-67
2024/02/06 06:37:58;;;;;;;;;;;5.00;99.90;;;-146.41;100.00;57768.22;4984514;28;1220;-67
2024/02/06 06:40:26;;;;;;;;;;;5.00;99.90;;;-146.41;100.00;57768.22;4980374;28;1268;-67
2024/02/06 06:42:53;;;;;;;;;;;4.90;99.90;;;-146.41;100.00;57768.22;4982534;28;2027;-67
2024/02/06 06:45:20;;;;;;;;;;;5.00;99.90;;;-146.41;100.00;57768.22;4982475;28;1398;-67
2024/02/06 06:47:47;;;;;;;;;;;5.00;99.90;;;-146.41;100.00;57768.22;4980877;28;1396;-67
2024/02/06 06:50:15;;;;;;;;;;;5.00;99.90;;;-146.41;100.00;57768.22;4981722;28;1902;-67
2024/02/06 06:52:42;;;;;;;;;;;5.00;99.90;;;-146.41;100.00;57768.22;4986549;28;1414;-67
2024/02/06 06:55:09;;;;;;;;;;;5.00;99.90;;;-146.41;100.00;57768.22;4981061;28;1343;-67
2024/02/06 06:57:42;;;;;;;;;;;5.00;99.90;;;-146.41;100.00;57768.22;4983847;28;3244;-67
2024/02/06 07:00:11;;;;;;;;;;;5.00;99.90;;;-146.41;100.00;57768.22;4981142;28;1238;-67
2024/02/06 07:02:39;;;;;;;;;;;5.00;99.90;;;-146.41;100.00;57768.22;4997869;28;1406;-67
2024/02/06 07:05:12;;;;;;;;;;;5.00;99.90;;;-146.41;100.00;57768.22;4969133;28;2616;-67
2024/02/06 07:07:39;;;;;;;;;;;5.00;99.90;;;-146.41;100.00;57768.22;4982465;28;1460;-67
2024/02/06 07:10:06;;;;;;;;;;;5.00;99.90;;;-146.41;100.00;57768.22;4979377;28;1969;-67
2024/02/06 07:12:33;;;;;;;;;;;5.00;99.90;;;-146.41;100.00;57768.22;4984481;28;1234;-67
2024/02/06 07:15:00;;;;;;;;;;;5.00;99.90;;;-146.41;100.00;57768.22;4976572;28;1345;-67
2024/02/06 07:17:27;;;;;;;;;;;5.00;99.90;;;-146.41;100.00;57768.22;4984435;28;1393;-68
2024/02/06 07:19:54;;;;;;;;;;;5.00;99.90;;;-146.41;100.00;57768.22;4981702;28;2318;-68
2024/02/06 07:22:21;;;;;;;;;;;5.00;99.90;;;-146.41;100.00;57768.22;4979135;28;1384;-67
2024/02/06 07:24:48;;;;;;;;;;;5.10;99.90;;;-146.41;100.00;57768.22;4983991;28;1322;-67
2024/02/06 07:27:15;;;;;;;;;;;5.10;99.90;;;-146.41;100.00;57768.22;4981402;28;1404;-68
2024/02/06 07:29:42;;;;;;;;;;;5.00;99.90;;;-146.41;100.00;57768.22;4978178;28;1910;-68
2024/02/06 07:32:09;;;;;;;;;;;5.00;99.90;;;-146.41;100.00;57768.22;4980241;28;2191;-68
2024/02/06 07:34:36;;;;;;;;;;;5.00;99.90;;;-146.41;100.00;57768.22;4994972;28;1607;-67
2024/02/06 07:37:03;;;;;;;;;;;5.00;99.90;;;-146.41;100.00;57768.22;4995173;28;1397;-67
2024/02/06 07:39:30;;;;;;;;;;;5.00;99.90;;;-146.41;100.00;57768.22;4996230;28;3859;-66
2024/02/06 07:41:56;;;;;;;;;;;5.00;99.90;;;-146.41;100.00;57768.22;4997541;28;1442;-67
2024/02/06 07:44:23;;;;;;;;;;;5.00;99.90;;;-146.41;100.00;57768.22;4977003;28;1318;-67
2024/02/06 07:46:50;;;;;;;;;;;5.10;99.90;;;-146.41;100.00;57768.22;4977571;28;2476;-67
2024/02/06 07:49:17;;;;;;;;;;;5.00;99.90;;;-146.41;100.00;57768.22;4979700;28;1902;-68
2024/02/06 07:51:45;;;;;;;;;;;5.00;99.90;;;-146.41;100.00;57768.22;4981233;28;1168;-67
2024/02/06 07:54:11;;;;;;;;;;;5.00;99.90;;;-146.41;100.00;57768.22;4977031;28;1288;-67
2024/02/06 07:56:38;;;;;;;;;;;5.00;99.90;;;-146.41;100.00;57768.22;4979204;28;1556;-67
2024/02/06 07:59:05;;;;;;;;;;;5.00;99.90;;;-146.41;100.00;57768.22;4981762;28;2058;-68
2024/02/06 08:01:33;;;;;;;;;;;5.00;99.90;;;-146.41;100.00;57768.22;4979891;28;2606;-67
2024/02/06 08:03:59;;;;;;;;;;;5.00;99.90;;;-146.41;100.00;57768.22;4992584;28;1285;-68
2024/02/06 08:06:31;;;;;;;;;;;5.00;99.90;;;-146.41;100.00;57768.22;4981701;28;1049;-67
2024/02/06 08:08:59;;;;;;;;;;;5.00;99.90;;;-146.41;100.00;57768.22;4981598;28;1019;-67
2024/02/06 08:11:26;;;;;;;;;;;5.00;99.90;;;-146.41;100.00;57768.22;4981247;28;1915;-67
2024/02/06 08:13:53;;;;;;;;;;;5.00;99.90;;;-146.41;100.00;57768.22;4994829;28;1990;-67
2024/02/06 08:16:20;;;;;;;;;;;5.00;99.90;;;-146.41;100.00;57768.22;4981126;28;1000;-68
2024/02/06 08:18:48;;;;;;;;;;;5.00;99.90;;;-146.41;100.00;57768.22;4979696;28;1275;-67
2024/02/06 08:21:15;;;;;;;;;;;5.00;99.90;;;-146.41;100.00;57768.22;4979598;28;1026;-67
2024/02/06 08:23:42;;;;;;;;;;;5.00;99.90;;;-146.41;100.00;57768.22;4981094;28;1307;-67
2024/02/06 08:26:09;;;;;;;;;;;5.00;99.90;;;-146.41;100.00;57768.22;4993139;28;1213;-67
2024/02/06 08:28:36;;;;;;;;;;;5.10;99.90;;;-146.41;100.00;57768.22;4980840;28;3824;-67
2024/02/06 08:31:04;;;;;;;;;;;5.10;99.90;;;-146.41;100.00;57768.22;4966251;28;1895;-67
2024/02/06 08:33:32;;;;;;;;;;;5.10;99.90;;;-146.41;100.00;57768.22;4981895;28;1146;-67
2024/02/06 08:35:59;;;;;;;;;;;5.10;99.90;;;-146.41;100.00;57768.22;4979865;28;1281;-68
2024/02/06 08:38:27;;;;;;;;;;;5.10;99.90;;;-146.41;100.00;57768.22;4982974;28;1307;-67
2024/02/06 08:40:55;;;;;;;;;;;5.10;99.90;;;-146.41;100.00;57768.22;4987903;28;2109;-67
2024/02/06 08:43:22;;;;;;;;;;;5.10;99.90;;;-146.41;100.00;57768.22;4985107;28;1307;-67
2024/02/06 08:45:49;;;;;;;;;;;5.10;99.90;;;-146.41;100.00;57768.22;4981942;28;1260;-68
2024/02/06 08:48:17;;;;;;;;;;;5.10;99.90;;;-146.41;100.00;57768.22;4982295;28;1090;-67
2024/02/06 08:50:49;;;;;;;;;;;5.10;99.90;;;-146.41;100.00;57768.22;4984756;28;1985;-67
2024/02/06 08:53:16;;;;;;;;;;;5.20;99.90;;;-146.41;100.00;57768.22;4986522;28;1323;-67
2024/02/06 08:55:43;;;;;;;;;;;5.20;99.90;;;-146.41;100.00;57768.22;4984505;28;2166;-68
2024/02/06 08:58:10;;;;;;;;;;;5.20;99.90;;;-146.41;100.00;57768.22;4979856;28;1104;-67
2024/02/06 09:00:37;;;;;;;;;;;5.20;99.90;;;-146.41;100.00;57768.22;4983333;28;1611;-67
2024/02/06 09:03:04;;;;;;;;;;;5.20;99.90;;;-146.41;100.00;57768.22;4981257;28;1208;-67
2024/02/06 09:05:31;;;;;;;;;;;5.20;99.90;;;-146.41;100.00;57768.22;4986113;28;3834;-68
2024/02/06 09:07:59;;;;;;;;;;;5.20;99.90;;;-146.41;100.00;57768.22;4996651;28;1623;-67
2024/02/06 09:10:26;;;;;;;;;;;5.20;99.90;;;-146.41;100.00;57768.22;4999953;28;2039;-67
2024/02/06 09:12:54;;;;;;;;;;;5.20;99.90;;;-146.41;100.00;57768.22;4985079;28;1227;-67
2024/02/06 09:15:22;;;;;;;;;;;5.20;99.90;;;-146.41;100.00;57768.22;4981721;28;1341;-67
2024/02/06 09:17:49;;;;;;;;;;;5.30;99.90;;;-146.41;100.00;57768.22;4983905;28;1959;-67
2024/02/06 09:20:17;;;;;;;;;;;5.30;99.90;;;-146.41;100.00;57768.22;4982922;28;1156;-68
2024/02/06 09:22:45;;;;;;;;;;;5.20;99.90;;;-146.41;100.00;57768.22;4983180;28;2640;-67
2024/02/06 09:25:14;;;;;;;;;;;5.30;99.90;;;-146.41;100.00;57768.22;4998286;28;2782;-68
2024/02/06 09:27:42;;;;;;;;;;;5.30;99.90;;;-146.41;100.00;57768.22;4982588;28;1199;-67
2024/02/06 09:30:14;;;;;;;;;;;5.30;99.90;;;-146.41;100.00;57768.22;4985713;28;1967;-68
2024/02/06 09:32:41;;;;;;;;;;;5.30;99.90;;;-146.41;100.00;57768.22;5011006;28;1267;-67
2024/02/06 09:35:08;;;;;;;;;;;5.40;99.90;;;-146.41;100.00;57768.22;4983238;28;1368;-67
2024/02/06 09:37:35;;;;;;;;;;;5.40;99.90;;;-146.41;100.00;57768.22;4985696;28;2197;-67
2024/02/06 09:40:02;;;;;;;;;;;5.40;99.90;;;-146.41;100.00;57768.22;4980701;28;2591;-68
2024/02/06 09:42:29;;;;;;;;;;;5.40;99.90;;;-146.41;100.00;57768.22;4984968;28;1338;-68
2024/02/06 09:44:58;;;;;;;;;;;5.40;99.90;;;-146.41;100.00;57768.22;4986252;28;1417;-67
2024/02/06 09:47:27;;;;;;;;;;;5.50;99.90;;;-146.41;100.00;57768.22;4984921;28;1471;-67
2024/02/06 09:49:55;;;;;;;;;;;5.50;99.90;;;-146.41;100.00;57768.22;4985086;28;1993;-67
2024/02/06 09:52:23;;;;;;;;;;;5.50;99.90;;;-146.41;100.00;57768.22;4983883;28;3197;-67
2024/02/06 09:54:51;;;;;;;;;;;5.50;99.90;;;-146.41;100.00;57768.22;4986746;28;1324;-67
2024/02/06 09:57:21;;;;;;;;;;;5.60;99.90;;;-146.41;100.00;57768.22;4985549;28;1459;-68
2024/02/06 09:59:51;;;;;;;;;;;5.60;99.90;;;-146.41;100.00;57768.22;4984300;28;2566;-68
2024/02/06 10:02:20;;;;;;;;;;;5.50;99.90;;;-146.41;100.00;57768.22;4980346;28;2561;-67
2024/02/06 10:04:50;;;;;;;;;;;5.60;99.90;;;-146.41;100.00;57768.22;4987347;28;1439;-67
2024/02/06 10:07:16;;;;;;;;;;;5.60;99.90;;;-146.41;100.00;57768.22;4985082;28;1331;-70
2024/02/06 10:09:45;;;;;;;;;;;5.60;99.90;;;-146.41;100.00;57768.22;4979212;28;1351;-66
2024/02/06 10:12:14;;;;;;;;;;;5.60;99.90;;;-146.41;100.00;57768.22;4983673;28;1906;-68
2024/02/06 10:14:41;;;;;;;;;;;5.60;99.90;;;-146.41;100.00;57768.22;4983423;28;2013;-67
2024/02/06 10:17:09;;;;;;;;;;;5.60;99.90;;;-146.41;100.00;57768.22;4983015;28;1901;-66
2024/02/06 10:19:37;;;;;;;;;;;5.70;99.90;;;-146.41;100.00;57768.22;4982920;28;1275;-68
2024/02/06 10:22:05;;;;;;;;;;;5.70;99.90;;;-146.41;100.00;57768.22;4995797;28;1472;-67
2024/02/06 10:24:31;;;;;;;;;;;5.70;99.90;;;-146.41;100.00;57768.22;4996773;28;1391;-67
2024/02/06 10:27:02;;;;;;;;;;;5.70;99.90;;;-146.41;100.00;57768.22;4980815;28;1430;-67
2024/02/06 10:29:29;;;;;;;;;;;5.80;99.90;;;-146.41;100.00;57768.22;5012249;28;1985;-67
2024/02/06 10:31:58;;;;;;;;;;;5.80;99.90;;;-146.41;100.00;57768.22;4981954;28;1981;-67
2024/02/06 10:34:28;;;;;;;;;;;5.80;99.90;;;-146.41;100.00;57768.22;4979372;28;1305;-67
2024/02/06 10:36:58;;;;;;;;;;;5.80;99.90;;;-146.41;100.00;57768.22;4996910;28;1366;-67
2024/02/06 10:39:29;;;;;;;;;;;5.70;99.90;;;-146.41;100.00;57768.22;4981405;28;1350;-67
2024/02/06 10:42:02;;;;;;;;;;;5.70;99.90;;;-146.41;100.00;57768.22;4998693;28;1233;-67
2024/02/06 10:44:33;;;;;;;;;;;5.80;99.90;;;-146.41;100.00;57768.22;4979402;28;3535;-67
2024/02/06 10:47:01;;;;;;;;;;;5.80;99.90;;;-146.41;100.00;57768.22;4981148;28;1054;-67
2024/02/06 10:49:29;;;;;;;;;;;5.80;99.90;;;-146.41;100.00;57768.22;4980121;28;1239;-67
2024/02/06 10:52:04;;;;;;;;;;;5.80;99.90;;;-146.41;100.00;57768.22;4982482;28;1906;-67
2024/02/06 10:54:35;;;;;;;;;;;5.90;99.90;;;-146.41;100.00;57768.22;4980253;28;1302;-67
2024/02/06 10:57:05;;;;;;;;;;;5.90;99.90;;;-146.41;100.00;57768.22;4978706;28;2153;-69
2024/02/06 10:59:40;;;;;;;;;;;5.90;99.90;;;-146.41;100.00;57768.22;4983475;28;1212;-68
2024/02/06 11:02:21;;;;;;;;;;;5.90;99.90;;;-146.41;100.00;57768.22;4980436;28;1287;-67
2024/02/06 11:05:30;;;;;;;;;;;5.90;99.90;;;-146.41;100.00;57768.22;4979097;28;2485;-67
2024/02/06 11:08:08;;;;;;;;;;;6.00;99.90;;;-146.41;100.00;57768.22;4975907;28;1224;-67
2024/02/06 11:10:50;;;;;;;;;;;6.00;99.90;;;-146.41;100.00;57768.22;4982875;28;1914;-67